Time;durP1;ratioP1;P1;durP2;ratioP2;P2;SDS_P1;SDS_P2;PMS_P1;PMS_P2;Temp;Humidity;BMP_temperature;BMP_pressure;BME280_temperature;BME280_humidity;BME280_pressure;Samples;Min_cycle;Max_cycle;Signal;HPM_P1;HPM_P2
2022/05/02 00:00:26;;;;;;;16.90;11.70;;;;;;;11.29;59.19;102036.22;5057726;28;20041;-52
2022/05/02 00:02:54;;;;;;;14.57;11.75;;;;;;;11.26;59.05;102036.72;5038820;28;20415;-51
2022/05/02 00:05:22;;;;;;;17.13;12.13;;;;;;;11.26;59.23;102039.44;5062497;28;20043;-51
2022/05/02 00:07:49;;;;;;;19.83;12.43;;;;;;;11.23;59.68;102032.59;5043235;28;20049;-50
2022/05/02 00:10:17;;;;;;;17.13;11.50;;;;;;;11.19;58.88;102025.94;5072199;28;20054;-53
2022/05/02 00:12:45;;;;;;;17.48;12.10;;;;;;;11.12;59.83;102029.88;5076434;28;20044;-51
2022/05/02 00:15:13;;;;;;;16.20;11.25;;;;;;;11.11;60.05;102025.50;5072391;28;20043;-50
2022/05/02 00:17:57;;;;;;;15.80;11.95;;;;;;;11.08;60.07;102027.63;5033716;28;20159;-51
2022/05/02 00:20:26;;;;;;;20.67;12.30;;;;;;;11.09;59.80;102020.28;5042014;28;20043;-52
2022/05/02 00:22:54;;;;;;;17.67;11.38;;;;;;;11.07;59.91;102025.97;5038754;28;20053;-50
2022/05/02 00:25:22;;;;;;;19.60;11.80;;;;;;;11.03;60.10;102016.63;5007378;28;20046;-55
2022/05/02 00:27:50;;;;;;;16.17;11.98;;;;;;;11.00;60.42;102019.00;5020474;28;20041;-53
2022/05/02 00:30:18;;;;;;;17.65;12.15;;;;;;;10.94;60.32;102012.59;5054555;28;20050;-51
2022/05/02 00:32:46;;;;;;;16.52;11.57;;;;;;;10.90;61.09;102011.44;5075998;28;20043;-51
2022/05/02 00:35:14;;;;;;;16.48;11.75;;;;;;;10.88;61.10;102002.69;5056570;28;20509;-49
2022/05/02 00:37:42;;;;;;;20.20;11.93;;;;;;;10.84;60.88;102006.94;5056172;28;20484;-50
2022/05/02 00:40:12;;;;;;;17.42;12.43;;;;;;;10.83;61.03;102010.75;5057154;28;20041;-49
2022/05/02 00:42:43;;;;;;;20.63;11.63;;;;;;;10.84;61.41;102007.75;5056229;28;20095;-52
2022/05/02 00:45:13;;;;;;;17.55;12.25;;;;;;;10.85;61.00;102003.16;5056402;28;20051;-52
2022/05/02 00:47:48;;;;;;;17.70;12.55;;;;;;;10.83;61.03;102005.31;5055001;28;20047;-51
2022/05/02 00:50:16;;;;;;;14.75;11.43;;;;;;;10.81;60.86;102004.72;5075136;28;20051;-53
2022/05/02 00:52:44;;;;;;;17.20;12.15;;;;;;;10.78;61.24;101999.75;5057975;28;20080;-51
2022/05/02 00:55:11;;;;;;;21.13;12.25;;;;;;;10.77;61.59;102000.78;5038955;28;20048;-53
2022/05/02 00:57:39;;;;;;;17.27;12.65;;;;;;;10.74;61.45;101995.84;5055857;28;20068;-53
2022/05/02 01:00:07;;;;;;;19.55;12.60;;;;;;;10.70;61.39;102000.91;5082184;28;20047;-52
2022/05/02 01:02:36;;;;;;;19.33;12.43;;;;;;;10.69;61.62;101999.28;5087948;28;20071;-52
2022/05/02 01:05:05;;;;;;;19.58;12.93;;;;;;;10.65;61.70;101996.22;5059420;28;20186;-54
2022/05/02 01:07:32;;;;;;;17.85;11.95;;;;;;;10.63;61.57;101998.34;5058846;28;20052;-53
2022/05/02 01:10:00;;;;;;;15.65;11.85;;;;;;;10.64;61.89;101991.81;5090123;28;20043;-54
2022/05/02 01:12:29;;;;;;;16.80;11.57;;;;;;;10.64;61.61;101991.81;5084766;28;20098;-49
2022/05/02 01:14:58;;;;;;;16.95;12.00;;;;;;;10.64;61.92;102000.00;5055762;28;20510;-51
2022/05/02 01:17:25;;;;;;;18.58;12.55;;;;;;;10.63;61.81;101990.16;5021800;28;20041;-51
2022/05/02 01:19:53;;;;;;;17.48;12.00;;;;;;;10.60;61.68;101996.06;5056470;28;20037;-52
2022/05/02 01:22:21;;;;;;;19.65;12.52;;;;;;;10.56;62.12;101994.91;5055486;28;20063;-52
2022/05/02 01:24:49;;;;;;;18.85;11.95;;;;;;;10.53;62.17;101992.66;5036977;28;20059;-51
2022/05/02 01:27:18;;;;;;;18.17;12.30;;;;;;;10.51;62.19;101997.53;5056295;28;20143;-52
2022/05/02 01:29:46;;;;;;;21.17;12.65;;;;;;;10.52;61.93;101996.47;5055271;28;20381;-48
2022/05/02 01:32:15;;;;;;;19.25;13.18;;;;;;;10.54;62.14;101994.31;5055094;28;20051;-50
2022/05/02 01:34:43;;;;;;;17.08;12.65;;;;;;;10.53;62.05;101986.38;5035570;28;20037;-51
2022/05/02 01:37:13;;;;;;;16.67;12.93;;;;;;;10.51;62.07;101992.09;5024198;28;20475;-54
2022/05/02 01:39:41;;;;;;;18.77;13.23;;;;;;;10.47;61.78;101985.44;5056102;28;20072;-53
2022/05/02 01:42:10;;;;;;;18.48;12.90;;;;;;;10.42;62.39;101988.88;5054866;28;20045;-54
2022/05/02 01:44:39;;;;;;;19.95;12.90;;;;;;;10.38;62.35;101989.59;5025381;28;20049;-55
2022/05/02 01:47:10;;;;;;;18.52;12.85;;;;;;;10.32;62.40;101988.66;5036316;28;20038;-51
2022/05/02 01:49:38;;;;;;;17.85;12.80;;;;;;;10.26;62.74;101989.56;5037216;28;20484;-49
2022/05/02 01:52:06;;;;;;;19.75;12.48;;;;;;;10.24;62.91;101987.06;5037075;28;20506;-49
2022/05/02 01:54:34;;;;;;;18.60;13.38;;;;;;;10.24;62.92;101983.53;5054826;28;20081;-48
2022/05/02 01:57:02;;;;;;;16.67;12.50;;;;;;;10.23;63.01;101981.88;5043042;28;20119;-50
2022/05/02 01:59:30;;;;;;;17.73;13.40;;;;;;;10.21;63.22;101976.66;5056438;28;20055;-52
2022/05/02 02:01:57;;;;;;;20.80;13.45;;;;;;;10.23;62.90;101974.53;5050993;28;20209;-54
2022/05/02 02:07:13;;;;;;;16.67;12.45;;;;;;;10.15;63.17;101977.63;5056836;28;20060;-52
2022/05/02 02:09:41;;;;;;;17.95;13.23;;;;;;;10.15;63.47;101977.63;5074264;28;20066;-51
2022/05/02 02:12:09;;;;;;;21.45;13.50;;;;;;;10.14;63.27;101978.66;5055344;28;20041;-52
2022/05/02 02:14:37;;;;;;;21.13;13.60;;;;;;;10.08;63.42;101978.78;5053206;28;20037;-52
2022/05/02 02:17:04;;;;;;;17.83;13.57;;;;;;;9.98;63.96;101982.94;5045972;28;20036;-52
2022/05/02 02:19:32;;;;;;;20.65;14.02;;;;;;;9.88;64.67;101984.56;5054126;28;20076;-50
2022/05/02 02:22:16;;;;;;;19.77;12.73;;;;;;;9.84;64.75;101986.09;5059383;28;20518;-50
2022/05/02 02:24:45;;;;;;;17.13;13.25;;;;;;;9.84;64.87;101981.50;5054337;28;20045;-50
2022/05/02 02:27:13;;;;;;;19.27;12.60;;;;;;;9.85;64.85;101983.16;5037250;28;20491;-54
2022/05/02 02:29:41;;;;;;;17.85;13.65;;;;;;;9.86;64.98;101984.81;5022150;28;20036;-48
2022/05/02 02:32:09;;;;;;;18.30;13.45;;;;;;;9.86;65.19;101976.66;5055791;28;20055;-51
2022/05/02 02:34:37;;;;;;;19.20;14.18;;;;;;;9.88;64.82;101977.22;5048613;28;20071;-55
2022/05/02 02:37:05;;;;;;;18.02;13.73;;;;;;;9.88;65.51;101979.13;5072850;28;20046;-52
2022/05/02 02:39:32;;;;;;;20.58;13.45;;;;;;;9.87;65.37;101972.03;5070838;28;20041;-51
2022/05/02 02:42:00;;;;;;;17.27;12.93;;;;;;;9.87;65.48;101966.59;5073690;28;20127;-50
2022/05/02 02:44:28;;;;;;;19.08;14.63;;;;;;;9.89;65.47;101968.00;5073577;28;20044;-52
2022/05/02 02:46:55;;;;;;;20.25;14.73;;;;;;;9.85;65.95;101966.81;5065168;28;20043;-53
2022/05/02 02:49:23;;;;;;;18.10;14.02;;;;;;;9.85;65.86;101960.53;5071766;28;20044;-53
2022/05/02 02:51:50;;;;;;;21.48;14.35;;;;;;;9.82;65.86;101968.13;5073386;28;20040;-54
2022/05/02 02:54:18;;;;;;;19.88;14.15;;;;;;;9.77;66.28;101962.56;5055756;28;20055;-55
2022/05/02 02:56:46;;;;;;;19.77;14.30;;;;;;;9.79;66.83;101948.72;5071331;28;20101;-54
2022/05/02 02:59:14;;;;;;;21.92;14.55;;;;;;;9.83;66.87;101952.59;5052184;28;20396;-52
2022/05/02 03:01:42;;;;;;;19.40;14.48;;;;;;;9.85;66.49;101955.09;5052757;28;20053;-54
2022/05/02 03:06:56;;;;;;;17.75;13.77;;;;;;;9.74;67.08;101954.88;5053229;28;20037;-51
2022/05/02 03:09:23;;;;;;;19.42;14.38;;;;;;;9.67;67.24;101951.41;5044421;28;20041;-52
2022/05/02 03:11:51;;;;;;;20.35;15.52;;;;;;;9.53;67.67;101947.25;5053205;28;20036;-52
2022/05/02 03:14:19;;;;;;;21.77;14.98;;;;;;;9.49;67.86;101952.31;5053042;28;20048;-53
2022/05/02 03:16:46;;;;;;;20.00;14.48;;;;;;;9.46;68.18;101952.78;5019636;28;20045;-52
2022/05/02 03:19:14;;;;;;;19.67;15.02;;;;;;;9.52;68.30;101948.28;5052727;28;20068;-54
2022/05/02 03:21:42;;;;;;;20.20;14.63;;;;;;;9.59;67.92;101952.56;5057285;28;20043;-53
2022/05/02 03:24:09;;;;;;;18.75;14.00;;;;;;;9.65;67.31;101945.38;5057572;28;20040;-55
2022/05/02 03:26:37;;;;;;;19.60;14.27;;;;;;;9.68;67.35;101949.53;5052096;28;20518;-49
2022/05/02 03:29:04;;;;;;;19.50;14.32;;;;;;;9.65;67.12;101945.38;5053006;28;20515;-52
2022/05/02 03:31:32;;;;;;;22.17;14.93;;;;;;;9.61;67.40;101949.63;5055659;28;20041;-54
2022/05/02 03:34:00;;;;;;;19.85;14.18;;;;;;;9.62;67.17;101936.84;5054326;28;20037;-55
2022/05/02 03:36:27;;;;;;;19.05;14.32;;;;;;;9.56;67.64;101941.34;5053479;28;20067;-52
2022/05/02 03:38:55;;;;;;;17.52;13.75;;;;;;;9.51;67.46;101941.22;5053146;28;20116;-52
2022/05/02 03:41:22;;;;;;;18.10;14.00;;;;;;;9.50;67.63;101936.81;5054115;28;20037;-52
2022/05/02 03:43:50;;;;;;;20.48;14.02;;;;;;;9.53;67.88;101941.81;5053633;28;20384;-54
2022/05/02 03:46:23;;;;;;;18.42;14.18;;;;;;;9.58;67.65;101945.47;5052970;28;20041;-51
2022/05/02 03:48:51;;;;;;;18.25;14.40;;;;;;;9.60;67.43;101937.91;5052814;28;20557;-53
2022/05/02 03:51:19;;;;;;;18.05;14.50;;;;;;;9.57;67.40;101937.53;5051943;28;20079;-55
2022/05/02 03:53:46;;;;;;;18.73;14.10;;;;;;;9.54;67.47;101941.56;5036322;28;20047;-52
2022/05/02 03:56:14;;;;;;;19.77;14.18;;;;;;;9.49;68.03;101949.59;5052597;28;20037;-53
2022/05/02 03:58:41;;;;;;;20.40;13.85;;;;;;;9.40;68.43;101950.97;5053060;28;20045;-50
2022/05/02 04:01:09;;;;;;;17.75;13.77;;;;;;;9.35;68.15;101951.69;5052203;28;20052;-50
2022/05/02 04:03:37;;;;;;;18.55;13.38;;;;;;;9.33;68.55;101947.53;5050408;28;20415;-51
2022/05/02 04:06:04;;;;;;;18.77;13.05;;;;;;;9.34;68.83;101949.22;5053118;28;20055;-52
2022/05/02 04:08:32;;;;;;;19.90;13.75;;;;;;;9.33;68.37;101942.09;5051652;28;20049;-50
2022/05/02 04:11:00;;;;;;;20.00;14.05;;;;;;;9.33;69.06;101948.38;5034731;28;20116;-50
2022/05/02 04:13:28;;;;;;;17.65;13.52;;;;;;;9.37;68.44;101948.75;5052549;28;20045;-52
2022/05/02 04:15:55;;;;;;;21.02;13.57;;;;;;;9.43;68.32;101946.97;5053497;28;20041;-51
2022/05/02 04:18:23;;;;;;;18.20;13.73;;;;;;;9.44;68.63;101945.91;5053762;28;20124;-51
2022/05/02 04:20:51;;;;;;;18.58;13.70;;;;;;;9.47;68.18;101946.28;5058335;28;20041;-52
2022/05/02 04:23:18;;;;;;;17.75;13.18;;;;;;;9.50;68.01;101942.25;5052432;28;20927;-53
2022/05/02 04:25:46;;;;;;;20.77;14.00;;;;;;;9.52;68.09;101945.56;5035734;28;20052;-50
2022/05/02 04:28:14;;;;;;;18.85;13.90;;;;;;;9.55;67.94;101945.13;5052393;28;20043;-54
2022/05/02 04:30:41;;;;;;;20.40;13.73;;;;;;;9.53;67.75;101939.91;5053009;28;20045;-54
2022/05/02 04:33:09;;;;;;;16.95;13.68;;;;;;;9.45;68.48;101942.13;5072012;28;20043;-53
2022/05/02 04:35:37;;;;;;;18.25;13.52;;;;;;;9.36;68.92;101942.47;5070397;28;20462;-51
2022/05/02 04:38:05;;;;;;;16.75;13.20;;;;;;;9.37;68.71;101944.13;5075312;28;20039;-51
2022/05/02 04:40:32;;;;;;;18.25;13.40;;;;;;;9.38;69.03;101945.78;5084345;28;20037;-53
2022/05/02 04:43:00;;;;;;;19.20;13.68;;;;;;;9.35;69.08;101935.34;5058971;28;20051;-52
2022/05/02 04:45:28;;;;;;;17.75;13.30;;;;;;;9.34;69.22;101936.44;5064842;28;20405;-50
2022/05/02 04:47:57;;;;;;;22.05;13.10;;;;;;;9.34;69.49;101933.72;5055980;28;20055;-48
2022/05/02 04:50:25;;;;;;;19.42;14.45;;;;;;;9.39;69.16;101939.28;5055686;28;20040;-54
2022/05/02 04:52:52;;;;;;;17.70;13.85;;;;;;;9.39;69.24;101933.84;5055784;28;20045;-52
2022/05/02 04:55:20;;;;;;;18.15;13.27;;;;;;;9.39;68.90;101942.00;5044381;28;20041;-53
2022/05/02 04:57:48;;;;;;;17.70;13.35;;;;;;;9.41;68.99;101943.69;5029013;28;20048;-50
2022/05/02 05:00:16;;;;;;;19.05;12.95;;;;;;;9.38;69.47;101943.06;5004732;28;20416;-54
2022/05/02 05:02:44;;;;;;;15.98;12.40;;;;;;;9.42;69.58;101939.88;5035408;28;20480;-51
2022/05/02 05:05:12;;;;;;;17.15;13.93;;;;;;;9.46;69.18;101949.25;5041218;28;20531;-52
2022/05/02 05:07:39;;;;;;;18.10;14.00;;;;;;;9.45;69.28;101953.00;5055219;28;20049;-52
2022/05/02 05:10:09;;;;;;;17.35;13.25;;;;;;;9.47;69.34;101956.31;5064822;28;20067;-50
2022/05/02 05:13:07;;;;;;;18.48;14.35;;;;;;;9.48;69.34;101949.84;5075645;28;20123;-51
2022/05/02 05:19:00;;;;;;;18.02;13.45;;;;;;;9.48;69.47;101949.84;5057039;28;20051;-54
2022/05/02 05:21:58;;;;;;;20.35;13.70;;;;;;;9.48;69.58;101950.66;5056271;28;20045;-53
2022/05/02 05:24:49;;;;;;;17.15;14.00;;;;;;;9.51;69.85;101947.47;5037853;28;20414;-50
2022/05/02 05:27:41;;;;;;;19.70;14.23;;;;;;;9.48;69.88;101956.09;5017953;28;20099;-55
2022/05/02 05:30:10;;;;;;;20.63;13.77;;;;;;;9.39;70.40;101960.22;5042708;28;20414;-51
2022/05/02 05:32:46;;;;;;;21.52;14.02;;;;;;;9.22;71.14;101951.88;5054704;28;20045;-52
2022/05/02 05:35:41;;;;;;;16.25;12.98;;;;;;;9.23;72.00;101948.09;5037738;28;20033;-53
2022/05/02 05:38:09;;;;;;;17.52;13.40;;;;;;;9.31;71.83;101950.50;5013916;28;20127;-51
2022/05/02 05:40:43;;;;;;;23.08;13.50;;;;;;;9.28;71.41;101948.22;5075223;28;20045;-51
2022/05/02 05:43:44;;;;;;;17.02;12.90;;;;;;;9.28;71.86;101950.94;5069816;28;20037;-51
2022/05/02 05:46:23;;;;;;;18.42;13.40;;;;;;;9.30;71.78;101951.53;5056473;28;20049;-52
2022/05/02 05:49:13;;;;;;;19.65;13.48;;;;;;;9.35;71.33;101951.69;5034128;28;20095;-52
2022/05/02 05:51:48;;;;;;;19.60;12.98;;;;;;;9.38;71.92;101951.22;5034529;28;20045;-52
2022/05/02 05:54:46;;;;;;;19.50;11.98;;;;;;;9.41;71.75;101960.00;5042530;28;20045;-53
2022/05/02 05:57:45;;;;;;;19.33;12.82;;;;;;;9.38;72.06;101955.84;5046502;28;20051;-51
2022/05/02 06:00:14;;;;;;;16.52;13.13;;;;;;;9.37;72.13;101955.00;5046523;28;20510;-54
2022/05/02 06:03:10;;;;;;;21.13;13.07;;;;;;;9.44;72.18;101954.09;5054453;28;20073;-51
2022/05/02 06:05:45;;;;;;;18.98;13.30;;;;;;;9.38;72.51;101956.69;5055165;28;20045;-52
2022/05/02 06:08:21;;;;;;;21.48;13.20;;;;;;;9.44;72.75;101959.53;5054549;28;20495;-54
2022/05/02 06:10:50;;;;;;;17.45;13.20;;;;;;;9.46;72.90;101957.41;5054468;28;20041;-53
2022/05/02 06:13:19;;;;;;;21.65;13.48;;;;;;;9.51;73.48;101961.06;5036229;28;20099;-52
2022/05/02 06:18:56;;;;;;;16.70;12.48;;;;;;;9.67;72.70;101954.16;5043000;28;20098;-53
2022/05/02 06:21:24;;;;;;;18.63;13.48;;;;;;;9.74;72.61;101954.00;5039042;28;20037;-50
2022/05/02 06:23:52;;;;;;;21.23;12.90;;;;;;;9.78;72.06;101949.75;5037410;28;20041;-52
2022/05/02 06:26:24;;;;;;;16.95;12.05;;;;;;;9.82;71.84;101953.69;5071128;28;20498;-53
2022/05/02 06:28:54;;;;;;;18.00;13.13;;;;;;;9.89;71.72;101961.75;4323511;28;10001430;-51
2022/05/02 06:31:26;;;;;;;20.83;12.73;;;;;;;9.95;71.38;101952.63;5013728;28;20129;-52
2022/05/02 06:33:54;;;;;;;21.00;12.85;;;;;;;10.01;71.03;101952.50;5033082;28;20048;-55
2022/05/02 06:36:42;;;;;;;17.85;11.60;;;;;;;10.06;70.73;101950.97;5054194;28;20102;-51
2022/05/02 06:39:19;;;;;;;22.80;12.82;;;;;;;10.12;69.31;101961.72;5054760;28;20044;-48
2022/05/02 06:42:04;;;;;;;16.50;11.02;;;;;;;10.19;69.04;101956.16;4997771;28;20049;-51
2022/05/02 06:44:50;;;;;;;17.08;11.77;;;;;;;10.26;69.45;101962.31;5059614;28;20519;-55
2022/05/02 06:47:46;;;;;;;16.45;11.60;;;;;;;10.32;68.67;101955.13;5048573;28;20055;-54
2022/05/02 06:50:17;;;;;;;20.77;12.68;;;;;;;10.36;68.47;101961.75;5056099;28;20495;-52
2022/05/02 06:53:01;;;;;;;18.42;12.13;;;;;;;10.43;69.02;101957.00;5014838;28;20041;-54
2022/05/02 06:55:45;;;;;;;17.17;12.07;;;;;;;10.48;68.22;101959.84;5060122;28;20085;-51
2022/05/02 06:58:21;;;;;;;17.55;11.65;;;;;;;10.52;66.93;101954.75;5056211;28;20063;-54
2022/05/02 07:01:23;;;;;;;15.90;10.60;;;;;;;10.59;66.43;101955.47;5073393;28;20071;-52
2022/05/02 07:04:09;;;;;;;16.30;9.95;;;;;;;10.66;65.17;101961.59;5054267;28;20045;-51
2022/05/02 07:06:58;;;;;;;14.63;9.80;;;;;;;10.71;64.68;101949.97;5053219;28;20045;-52
2022/05/02 07:09:42;;;;;;;16.67;10.00;;;;;;;10.74;64.30;101953.03;5053259;28;20045;-52
2022/05/02 07:12:21;;;;;;;16.83;9.43;;;;;;;10.78;64.42;101953.41;5036648;28;20110;-53
2022/05/02 07:15:31;;;;;;;14.23;9.60;;;;;;;10.83;63.94;101958.94;5053267;28;20384;-54
2022/05/02 07:18:06;;;;;;;14.48;9.65;;;;;;;10.86;64.09;101962.00;5045410;28;20341;-51
2022/05/02 07:20:54;;;;;;;15.95;10.30;;;;;;;10.92;65.05;101953.94;5053230;28;20083;-55
2022/05/02 07:23:48;;;;;;;13.80;9.82;;;;;;;10.99;64.49;101957.34;5069889;28;20426;-54
2022/05/02 07:26:21;;;;;;;12.82;9.43;;;;;;;11.03;63.76;101962.06;5073074;28;20533;-51
2022/05/02 07:28:51;;;;;;;14.20;10.07;;;;;;;11.04;64.14;101957.44;5055929;28;20045;-53
2022/05/02 07:31:23;;;;;;;18.92;10.38;;;;;;;11.05;63.64;101965.38;5072911;28;20051;-51
2022/05/02 07:33:54;;;;;;;15.73;10.02;;;;;;;11.08;63.91;101956.72;5053602;28;20040;-52
2022/05/02 07:36:24;;;;;;;14.55;9.70;;;;;;;11.10;64.07;101953.75;5072781;28;20071;-51
2022/05/02 07:39:02;;;;;;;15.00;9.95;;;;;;;11.14;64.94;101962.28;5055228;28;20048;-49
2022/05/02 07:41:30;;;;;;;14.30;9.35;;;;;;;11.17;64.17;101957.16;5069034;28;20041;-52
2022/05/02 07:44:05;;;;;;;15.52;9.63;;;;;;;11.24;63.78;101960.56;5035298;28;20044;-52
2022/05/02 07:46:44;;;;;;;14.75;10.30;;;;;;;11.28;63.38;101959.00;5035703;28;20045;-53
2022/05/02 07:49:14;;;;;;;15.73;9.35;;;;;;;11.29;63.53;101962.56;5052907;28;20033;-53
2022/05/02 07:51:47;;;;;;;16.98;9.63;;;;;;;11.32;62.95;101959.34;5053807;28;20037;-53
2022/05/02 07:54:16;;;;;;;13.80;8.95;;;;;;;11.36;62.82;101960.50;5035364;28;20451;-53
2022/05/02 07:56:47;;;;;;;14.65;8.88;;;;;;;11.42;63.19;101959.50;5035284;28;20455;-53
2022/05/02 07:59:20;;;;;;;12.50;8.55;;;;;;;11.49;61.29;101962.91;5035115;28;20045;-49
2022/05/02 08:01:48;;;;;;;13.40;8.27;;;;;;;11.54;60.15;101961.34;5043229;28;20115;-50
2022/05/02 08:04:16;;;;;;;14.45;8.77;;;;;;;11.55;59.88;101957.56;5054778;28;20040;-52
2022/05/02 08:07:06;;;;;;;14.40;9.43;;;;;;;11.65;59.39;101960.47;5067048;28;20041;-54
2022/05/02 08:09:44;;;;;;;13.15;9.02;;;;;;;11.72;59.22;101956.50;5072561;28;20499;-51
2022/05/02 08:12:30;;;;;;;15.15;8.50;;;;;;;11.85;57.92;101951.78;5038749;28;20040;-54
2022/05/02 08:15:03;;;;;;;16.80;9.43;;;;;;;11.92;58.23;101957.94;5086213;28;20509;-52
2022/05/02 08:17:58;;;;;;;14.73;9.25;;;;;;;11.97;58.00;101949.00;5093241;28;20047;-55
2022/05/02 08:20:31;;;;;;;12.35;8.55;;;;;;;11.94;57.53;101947.59;5060297;28;20037;-51
2022/05/02 08:27:15;;;;;;;15.93;9.40;;;;;;;12.15;58.66;101948.72;5060317;28;20045;-51
2022/05/02 08:29:48;;;;;;;16.13;9.40;;;;;;;12.18;56.29;101944.66;5056652;28;20037;-53
2022/05/02 08:32:34;;;;;;;15.75;9.73;;;;;;;12.17;56.85;101952.03;5057465;28;20040;-52
2022/05/02 08:35:14;;;;;;;17.38;9.73;;;;;;;12.22;55.58;101956.72;5038666;28;20059;-51
2022/05/02 08:38:00;;;;;;;19.50;8.90;;;;;;;12.25;56.34;101953.50;5022028;28;20055;-54
2022/05/02 08:40:56;;;;;;;15.30;9.25;;;;;;;12.27;56.23;101954.91;5058312;28;20084;-54
2022/05/02 08:43:45;;;;;;;15.13;8.77;;;;;;;12.31;55.95;101947.88;5076458;28;20050;-52
2022/05/02 08:46:32;;;;;;;15.70;9.98;;;;;;;12.40;56.89;101950.16;5058182;28;20051;-52
2022/05/02 08:52:33;;;;;;;16.75;9.85;;;;;;;12.43;53.75;101935.97;5073891;28;20096;-51
2022/05/02 08:55:19;;;;;;;13.95;8.43;;;;;;;12.53;52.03;101949.78;4994350;28;20038;-51
2022/05/02 08:58:10;;;;;;;17.02;8.50;;;;;;;12.60;52.41;101944.13;5070644;28;20057;-54
2022/05/02 09:00:57;;;;;;;12.23;7.55;;;;;;;12.66;52.44;101946.69;5070499;28;20065;-51
2022/05/02 09:04:02;;;;;;;13.48;8.73;;;;;;;12.67;50.03;101936.56;5055464;28;20052;-53
2022/05/02 09:06:41;;;;;;;17.10;8.95;;;;;;;12.67;51.78;101942.03;5055250;28;20037;-51
2022/05/02 09:09:24;;;;;;;13.30;8.25;;;;;;;12.61;52.10;101943.06;5055295;28;20407;-54
2022/05/02 09:12:10;;;;;;;15.18;8.27;;;;;;;12.64;51.41;101943.38;5039274;28;20377;-51
2022/05/02 09:14:52;;;;;;;;;;;;;;;12.69;51.03;101940.69;5055784;28;20504;-51
2022/05/02 09:17:45;;;;;;;15.85;11.45;;;;;;;12.76;50.60;101935.03;5055209;28;20263;-52
2022/05/02 09:20:24;;;;;;;16.25;9.52;;;;;;;12.71;50.85;101938.53;5037697;28;20076;-53
2022/05/02 09:23:20;;;;;;;16.42;9.07;;;;;;;12.67;51.51;101942.84;5055673;28;20114;-49
2022/05/02 09:25:55;;;;;;;16.63;8.95;;;;;;;12.62;51.02;101940.06;5055564;28;20446;-51
2022/05/02 09:28:30;;;;;;;15.43;8.88;;;;;;;12.55;50.31;101932.06;5054984;28;20496;-52
2022/05/02 09:31:18;;;;;;;12.35;8.23;;;;;;;12.55;51.52;101931.22;5037914;28;20049;-51
2022/05/02 09:34:31;;;;;;;12.88;8.50;;;;;;;12.73;50.88;101936.38;5022122;28;20048;-53
2022/05/02 09:37:22;;;;;;;14.30;8.75;;;;;;;12.86;51.79;101939.78;5031929;28;20045;-53
2022/05/02 09:40:06;;;;;;;14.25;9.00;;;;;;;12.89;50.79;101936.53;5037127;28;20037;-52
2022/05/02 09:43:12;;;;;;;13.43;8.75;;;;;;;12.93;51.76;101929.47;5038265;28;20045;-54
2022/05/02 09:51:48;;;;;;;12.63;9.20;;;;;;;13.04;49.23;101925.78;5050685;28;19921;-53
2022/05/02 09:57:22;;;;;;;13.52;8.98;;;;;;;13.19;50.03;101909.50;5032511;28;20051;-52
2022/05/02 10:01:06;;;;;;;13.95;8.98;;;;;;;13.20;49.97;101921.28;5036610;28;20047;-57
2022/05/02 10:02:48;;;;;;;14.70;9.43;;;;;;;13.21;49.51;101915.56;5060356;28;20055;-50
2022/05/02 10:05:26;;;;;;;16.58;9.52;;;;;;;13.28;48.81;101909.09;5054256;28;20040;-50
2022/05/02 10:08:13;;;;;;;13.43;9.25;;;;;;;13.32;48.29;101905.56;5054652;28;20049;-50
2022/05/02 10:10:56;;;;;;;13.40;8.90;;;;;;;13.40;48.65;101912.50;5054439;28;20045;-51
2022/05/02 10:13:41;;;;;;;14.30;8.88;;;;;;;13.44;49.96;101902.66;5056685;28;20049;-54
2022/05/02 10:16:42;;;;;;;14.68;9.85;;;;;;;13.51;50.09;101903.25;5073853;28;20050;-52
2022/05/02 10:19:30;;;;;;;14.68;9.32;;;;;;;13.54;49.02;101908.22;5074203;28;20048;-52
2022/05/02 10:22:00;;;;;;;14.63;9.80;;;;;;;13.52;48.71;101913.13;5061513;28;20036;-50
2022/05/02 10:24:31;;;;;;;15.48;9.43;;;;;;;13.52;48.80;101915.88;5034254;28;20049;-50
2022/05/02 10:27:28;;;;;;;15.23;9.65;;;;;;;13.55;48.43;101909.88;5054371;28;20103;-54
2022/05/02 10:30:12;;;;;;;26.27;18.25;;;;;;;13.58;48.48;101906.59;5054102;28;20423;-49
2022/05/02 10:32:43;;;;;;;17.63;10.50;;;;;;;13.63;48.87;101897.59;5057159;28;20068;-53
2022/05/02 10:35:14;;;;;;;16.92;10.93;;;;;;;13.72;48.67;101887.00;5053493;28;20053;-52
2022/05/02 10:37:56;;;;;;;13.85;10.23;;;;;;;13.77;47.85;101890.59;5053875;28;20037;-51
2022/05/02 10:40:45;;;;;;;19.02;12.10;;;;;;;13.80;48.02;101894.72;5036320;28;20128;-51
2022/05/02 10:43:21;;;;;;;21.80;13.90;;;;;;;13.87;47.82;101894.50;5056214;28;20040;-54
2022/05/02 10:45:49;;;;;;;15.07;10.68;;;;;;;13.88;47.44;101882.44;5056644;28;20045;-51
2022/05/02 10:48:19;;;;;;;24.70;15.60;;;;;;;13.88;47.76;101880.53;5073803;28;20048;-51
2022/05/02 10:51:32;;;;;;;15.88;11.00;;;;;;;13.90;48.55;101878.34;5039191;28;20499;-54
2022/05/02 10:54:37;;;;;;;17.67;11.43;;;;;;;14.03;48.01;101879.81;4989793;28;20041;-52
2022/05/02 10:57:26;;;;;;;16.50;10.45;;;;;;;14.01;47.52;101873.75;5019671;28;20057;-52
2022/05/02 10:59:54;;;;;;;18.67;11.13;;;;;;;14.12;47.85;101874.63;5026120;28;20150;-55
2022/05/02 11:02:56;;;;;;;15.68;10.60;;;;;;;14.18;47.83;101868.09;4691190;28;10000545;-51
2022/05/02 11:05:48;;;;;;;15.50;9.85;;;;;;;14.23;47.71;101866.19;4683425;28;10001328;-55
2022/05/02 11:08:18;;;;;;;22.10;13.88;;;;;;;14.25;47.91;101857.72;5030150;28;20069;-54
2022/05/02 11:11:03;;;;;;;16.00;11.35;;;;;;;14.24;47.68;101858.81;5055506;28;20066;-53
2022/05/02 11:13:55;;;;;;;15.85;9.68;;;;;;;14.23;46.89;101859.88;5068520;28;20097;-55
2022/05/02 11:16:27;;;;;;;17.15;11.35;;;;;;;14.32;47.21;101857.47;5070219;28;20071;-54
2022/05/02 11:22:10;;;;;;;14.85;11.13;;;;;;;14.35;47.12;101846.78;5058821;28;20498;-52
2022/05/02 11:25:07;;;;;;;18.77;11.73;;;;;;;14.33;47.30;101846.22;5069759;28;20040;-51
2022/05/02 11:28:04;;;;;;;17.55;11.65;;;;;;;14.41;46.95;101853.94;5054455;28;20036;-51
2022/05/02 11:30:42;;;;;;;19.88;10.98;;;;;;;14.46;46.71;101848.47;5066773;28;20040;-49
2022/05/02 11:33:22;;;;;;;18.60;11.57;;;;;;;14.57;46.21;101849.34;5054303;28;20045;-50
2022/05/02 11:35:51;;;;;;;18.15;10.88;;;;;;;14.60;46.55;101843.34;5035271;28;20045;-49
2022/05/02 11:38:41;;;;;;;18.27;11.38;;;;;;;14.60;46.46;101839.75;5035483;28;20041;-51
2022/05/02 11:41:18;;;;;;;15.88;10.73;;;;;;;14.61;46.50;101833.19;5041578;28;20067;-52
2022/05/02 11:43:47;;;;;;;16.67;11.07;;;;;;;14.70;46.96;101839.81;5070562;28;20101;-55
2022/05/02 11:46:22;;;;;;;17.63;11.45;;;;;;;14.76;45.85;101835.97;5068141;28;20487;-53
2022/05/02 11:49:17;;;;;;;16.85;12.02;;;;;;;14.74;45.37;101838.16;5061208;28;20119;-54
2022/05/02 11:51:47;;;;;;;17.55;10.68;;;;;;;14.70;45.28;101837.06;5071259;28;20065;-54
2022/05/02 11:54:26;;;;;;;18.58;12.63;;;;;;;14.76;45.76;101840.63;5071671;28;20128;-51
2022/05/02 11:57:25;;;;;;;20.08;11.85;;;;;;;14.76;45.73;101830.47;5057451;28;20037;-53
2022/05/02 12:00:07;;;;;;;19.23;11.77;;;;;;;14.70;46.10;101832.38;5067251;28;20044;-56
2022/05/02 12:02:41;;;;;;;17.33;11.32;;;;;;;14.73;46.77;101831.03;5058345;28;20518;-52
2022/05/02 12:05:18;;;;;;;17.40;11.85;;;;;;;14.83;46.50;101825.53;5056458;28;20045;-53
2022/05/02 12:07:51;;;;;;;15.70;10.30;;;;;;;14.89;46.54;101821.72;5055351;28;20079;-55
2022/05/02 12:10:33;;;;;;;16.60;11.60;;;;;;;14.96;45.15;101829.69;5076529;28;20451;-55
2022/05/02 12:13:01;;;;;;;18.55;12.50;;;;;;;14.96;44.67;101826.97;5057279;28;20044;-54
2022/05/02 12:15:29;;;;;;;17.25;12.43;;;;;;;15.03;45.31;101823.91;5042742;28;20036;-52
2022/05/02 12:18:01;;;;;;;17.35;12.95;;;;;;;15.05;44.67;101829.97;5074679;28;20135;-53
2022/05/02 12:20:31;;;;;;;17.73;12.45;;;;;;;15.05;44.88;101816.25;5055871;28;20483;-52
2022/05/02 12:23:05;;;;;;;19.08;11.40;;;;;;;15.06;46.87;101813.22;5055716;28;20045;-50